sensor_id;sensor_type;location;lat;lon;timestamp;P1;durP1;ratioP1;P2;durP2;ratioP2
31782;SDS011;18351;47.560;9.708;2022-11-03T14:18:18;23.65;;;16.45;;
31782;SDS011;18351;47.560;9.708;2022-11-03T14:20:43;27.60;;;16.55;;
31782;SDS011;18351;47.560;9.708;2022-11-03T14:23:09;28.67;;;19.00;;
31782;SDS011;18351;47.560;9.708;2022-11-03T14:25:34;25.98;;;17.55;;
31782;SDS011;18351;47.560;9.708;2022-11-03T14:28:00;28.70;;;18.33;;
31782;SDS011;18351;47.560;9.708;2022-11-03T14:30:25;26.67;;;17.85;;
31782;SDS011;18351;47.560;9.708;2022-11-03T14:32:51;24.77;;;17.45;;
31782;SDS011;18351;47.560;9.708;2022-11-03T14:35:17;30.60;;;19.45;;
31782;SDS011;18351;47.560;9.708;2022-11-03T14:37:45;29.77;;;19.58;;
31782;SDS011;18351;47.560;9.708;2022-11-03T14:40:10;32.50;;;20.92;;
31782;SDS011;18351;47.560;9.708;2022-11-03T14:42:56;31.98;;;19.38;;
31782;SDS011;18351;47.560;9.708;2022-11-03T14:45:22;29.73;;;20.35;;
31782;SDS011;18351;47.560;9.708;2022-11-03T14:47:47;40.17;;;23.05;;
31782;SDS011;18351;47.560;9.708;2022-11-03T14:50:13;58.80;;;34.78;;
31782;SDS011;18351;47.560;9.708;2022-11-03T14:52:38;34.53;;;23.10;;
31782;SDS011;18351;47.560;9.708;2022-11-03T14:55:04;30.52;;;20.27;;
31782;SDS011;18351;47.560;9.708;2022-11-03T14:57:30;29.90;;;21.10;;
31782;SDS011;18351;47.560;9.708;2022-11-03T14:59:55;31.00;;;21.27;;
31782;SDS011;18351;47.560;9.708;2022-11-03T15:02:21;33.85;;;21.10;;
31782;SDS011;18351;47.560;9.708;2022-11-03T15:04:47;27.48;;;18.85;;
31782;SDS011;18351;47.560;9.708;2022-11-03T15:07:12;32.78;;;21.40;;
31782;SDS011;18351;47.560;9.708;2022-11-03T15:09:38;39.30;;;23.75;;
31782;SDS011;18351;47.560;9.708;2022-11-03T15:12:03;37.65;;;23.30;;
31782;SDS011;18351;47.560;9.708;2022-11-03T15:14:29;47.90;;;22.58;;
31782;SDS011;18351;47.560;9.708;2022-11-03T15:16:54;46.58;;;21.75;;
31782;SDS011;18351;47.560;9.708;2022-11-03T15:19:20;43.72;;;20.95;;
31782;SDS011;18351;47.560;9.708;2022-11-03T15:21:46;30.33;;;19.65;;
31782;SDS011;18351;47.560;9.708;2022-11-03T15:24:11;35.80;;;22.40;;
31782;SDS011;18351;47.560;9.708;2022-11-03T15:26:37;32.97;;;21.60;;
31782;SDS011;18351;47.560;9.708;2022-11-03T15:29:02;32.03;;;20.92;;
31782;SDS011;18351;47.560;9.708;2022-11-03T15:31:28;34.13;;;21.83;;
31782;SDS011;18351;47.560;9.708;2022-11-03T15:33:53;39.03;;;22.23;;
31782;SDS011;18351;47.560;9.708;2022-11-03T15:36:19;38.00;;;24.17;;
31782;SDS011;18351;47.560;9.708;2022-11-03T15:38:45;31.52;;;20.98;;
31782;SDS011;18351;47.560;9.708;2022-11-03T15:41:10;32.15;;;22.73;;
31782;SDS011;18351;47.560;9.708;2022-11-03T15:43:46;37.65;;;22.08;;
31782;SDS011;18351;47.560;9.708;2022-11-03T15:46:14;48.53;;;29.80;;
31782;SDS011;18351;47.560;9.708;2022-11-03T15:48:41;46.10;;;29.05;;
31782;SDS011;18351;47.560;9.708;2022-11-03T15:51:07;50.20;;;29.33;;
31782;SDS011;18351;47.560;9.708;2022-11-03T15:53:33;41.45;;;25.20;;
31782;SDS011;18351;47.560;9.708;2022-11-03T15:55:59;40.47;;;25.65;;
31782;SDS011;18351;47.560;9.708;2022-11-03T15:58:25;41.92;;;23.90;;
31782;SDS011;18351;47.560;9.708;2022-11-03T16:00:51;44.28;;;24.38;;
31782;SDS011;18351;47.560;9.708;2022-11-03T16:03:16;40.35;;;23.65;;
31782;SDS011;18351;47.560;9.708;2022-11-03T16:05:42;35.47;;;21.92;;
31782;SDS011;18351;47.560;9.708;2022-11-03T16:08:07;36.10;;;22.95;;
31782;SDS011;18351;47.560;9.708;2022-11-03T16:10:33;45.75;;;27.27;;
31782;SDS011;18351;47.560;9.708;2022-11-03T16:12:58;42.20;;;25.55;;
31782;SDS011;18351;47.560;9.708;2022-11-03T16:15:24;39.42;;;24.60;;
31782;SDS011;18351;47.560;9.708;2022-11-03T16:17:49;38.53;;;25.30;;
31782;SDS011;18351;47.560;9.708;2022-11-03T16:20:15;36.92;;;23.45;;
31782;SDS011;18351;47.560;9.708;2022-11-03T16:22:41;37.25;;;23.38;;
31782;SDS011;18351;47.560;9.708;2022-11-03T16:25:06;35.38;;;23.17;;
31782;SDS011;18351;47.560;9.708;2022-11-03T16:27:32;32.58;;;22.10;;
31782;SDS011;18351;47.560;9.708;2022-11-03T16:29:58;42.67;;;25.02;;
31782;SDS011;18351;47.560;9.708;2022-11-03T16:32:23;49.40;;;31.48;;
31782;SDS011;18351;47.560;9.708;2022-11-03T16:34:49;46.42;;;31.70;;
31782;SDS011;18351;47.560;9.708;2022-11-03T16:37:15;45.65;;;30.30;;
31782;SDS011;18351;47.560;9.708;2022-11-03T16:39:41;52.15;;;35.47;;
31782;SDS011;18351;47.560;9.708;2022-11-03T16:42:06;58.30;;;35.47;;
31782;SDS011;18351;47.560;9.708;2022-11-03T16:44:32;50.28;;;33.65;;
31782;SDS011;18351;47.560;9.708;2022-11-03T16:46:58;56.13;;;34.95;;
31782;SDS011;18351;47.560;9.708;2022-11-03T16:49:25;91.00;;;49.72;;
31782;SDS011;18351;47.560;9.708;2022-11-03T16:51:50;56.60;;;35.55;;
31782;SDS011;18351;47.560;9.708;2022-11-03T16:54:16;48.28;;;30.65;;
31782;SDS011;18351;47.560;9.708;2022-11-03T16:56:42;40.80;;;27.30;;
31782;SDS011;18351;47.560;9.708;2022-11-03T16:59:08;39.28;;;25.40;;
31782;SDS011;18351;47.560;9.708;2022-11-03T17:01:34;41.90;;;26.13;;
31782;SDS011;18351;47.560;9.708;2022-11-03T17:03:59;46.28;;;26.33;;
31782;SDS011;18351;47.560;9.708;2022-11-03T17:06:25;36.35;;;23.00;;
31782;SDS011;18351;47.560;9.708;2022-11-03T17:08:51;35.35;;;23.88;;
31782;SDS011;18351;47.560;9.708;2022-11-03T17:11:17;37.58;;;23.60;;
31782;SDS011;18351;47.560;9.708;2022-11-03T17:13:59;30.83;;;21.90;;
31782;SDS011;18351;47.560;9.708;2022-11-03T17:16:26;46.78;;;31.55;;
31782;SDS011;18351;47.560;9.708;2022-11-03T17:18:52;84.00;;;56.50;;
31782;SDS011;18351;47.560;9.708;2022-11-03T17:21:17;55.97;;;36.45;;
31782;SDS011;18351;47.560;9.708;2022-11-03T17:23:43;48.50;;;31.05;;
31782;SDS011;18351;47.560;9.708;2022-11-03T17:26:08;35.13;;;24.02;;
31782;SDS011;18351;47.560;9.708;2022-11-03T17:28:34;41.53;;;24.23;;
31782;SDS011;18351;47.560;9.708;2022-11-03T17:31:00;40.20;;;23.13;;
31782;SDS011;18351;47.560;9.708;2022-11-03T17:33:26;37.00;;;21.77;;
31782;SDS011;18351;47.560;9.708;2022-11-03T17:35:52;35.03;;;22.15;;
31782;SDS011;18351;47.560;9.708;2022-11-03T17:38:17;36.50;;;23.95;;
31782;SDS011;18351;47.560;9.708;2022-11-03T17:40:44;34.95;;;23.38;;
31782;SDS011;18351;47.560;9.708;2022-11-03T17:43:24;33.25;;;22.90;;
31782;SDS011;18351;47.560;9.708;2022-11-03T17:45:51;52.25;;;29.05;;
31782;SDS011;18351;47.560;9.708;2022-11-03T17:48:17;44.53;;;28.55;;
31782;SDS011;18351;47.560;9.708;2022-11-03T17:50:44;37.78;;;27.52;;
31782;SDS011;18351;47.560;9.708;2022-11-03T17:53:25;47.38;;;31.13;;
31782;SDS011;18351;47.560;9.708;2022-11-03T17:55:53;58.35;;;33.92;;
31782;SDS011;18351;47.560;9.708;2022-11-03T17:58:21;39.20;;;28.15;;
31782;SDS011;18351;47.560;9.708;2022-11-03T18:00:57;44.20;;;29.17;;
31782;SDS011;18351;47.560;9.708;2022-11-03T18:03:23;52.05;;;32.72;;
31782;SDS011;18351;47.560;9.708;2022-11-03T18:05:49;51.47;;;30.27;;
31782;SDS011;18351;47.560;9.708;2022-11-03T18:08:15;44.85;;;30.48;;
31782;SDS011;18351;47.560;9.708;2022-11-03T18:10:43;44.92;;;29.27;;
31782;SDS011;18351;47.560;9.708;2022-11-03T18:13:20;45.38;;;30.35;;
31782;SDS011;18351;47.560;9.708;2022-11-03T18:16:11;44.90;;;29.30;;
31782;SDS011;18351;47.560;9.708;2022-11-03T18:18:44;46.53;;;28.50;;
31782;SDS011;18351;47.560;9.708;2022-11-03T18:21:13;48.17;;;30.25;;
31782;SDS011;18351;47.560;9.708;2022-11-03T18:23:41;53.65;;;30.65;;
31782;SDS011;18351;47.560;9.708;2022-11-03T18:28:43;47.58;;;29.10;;
31782;SDS011;18351;47.560;9.708;2022-11-03T18:31:12;45.65;;;27.77;;
31782;SDS011;18351;47.560;9.708;2022-11-03T18:33:44;45.67;;;27.50;;
31782;SDS011;18351;47.560;9.708;2022-11-03T18:36:10;37.65;;;25.38;;
31782;SDS011;18351;47.560;9.708;2022-11-03T18:38:39;40.10;;;25.40;;
31782;SDS011;18351;47.560;9.708;2022-11-03T18:41:13;38.47;;;24.58;;
31782;SDS011;18351;47.560;9.708;2022-11-03T18:44:20;37.50;;;25.08;;
31782;SDS011;18351;47.560;9.708;2022-11-03T18:46:48;38.92;;;24.08;;
31782;SDS011;18351;47.560;9.708;2022-11-03T18:49:15;37.25;;;24.65;;
31782;SDS011;18351;47.560;9.708;2022-11-03T18:52:03;33.92;;;22.77;;
31782;SDS011;18351;47.560;9.708;2022-11-03T18:54:38;40.13;;;24.02;;
31782;SDS011;18351;47.560;9.708;2022-11-03T18:57:09;48.35;;;28.00;;
31782;SDS011;18351;47.560;9.708;2022-11-03T18:59:36;33.92;;;23.20;;
31782;SDS011;18351;47.560;9.708;2022-11-03T19:02:17;42.50;;;27.05;;
31782;SDS011;18351;47.560;9.708;2022-11-03T19:04:44;36.50;;;23.83;;
31782;SDS011;18351;47.560;9.708;2022-11-03T19:07:11;38.28;;;24.15;;
31782;SDS011;18351;47.560;9.708;2022-11-03T19:09:39;35.97;;;23.67;;
31782;SDS011;18351;47.560;9.708;2022-11-03T19:12:05;31.83;;;22.40;;
31782;SDS011;18351;47.560;9.708;2022-11-03T19:14:33;32.47;;;22.33;;
31782;SDS011;18351;47.560;9.708;2022-11-03T19:17:05;37.70;;;22.30;;
31782;SDS011;18351;47.560;9.708;2022-11-03T19:19:37;32.88;;;21.48;;
31782;SDS011;18351;47.560;9.708;2022-11-03T19:22:06;32.22;;;22.02;;
31782;SDS011;18351;47.560;9.708;2022-11-03T19:24:38;30.98;;;22.25;;
31782;SDS011;18351;47.560;9.708;2022-11-03T19:27:03;35.42;;;22.15;;
31782;SDS011;18351;47.560;9.708;2022-11-03T19:29:35;33.05;;;22.10;;
31782;SDS011;18351;47.560;9.708;2022-11-03T19:32:03;31.42;;;21.77;;
31782;SDS011;18351;47.560;9.708;2022-11-03T19:34:30;35.30;;;23.05;;
31782;SDS011;18351;47.560;9.708;2022-11-03T19:36:58;31.23;;;21.83;;
31782;SDS011;18351;47.560;9.708;2022-11-03T19:42:01;34.50;;;24.63;;
31782;SDS011;18351;47.560;9.708;2022-11-03T19:44:59;32.13;;;22.55;;
31782;SDS011;18351;47.560;9.708;2022-11-03T19:47:30;36.83;;;24.00;;
31782;SDS011;18351;47.560;9.708;2022-11-03T19:50:00;40.17;;;25.13;;
31782;SDS011;18351;47.560;9.708;2022-11-03T19:52:28;37.85;;;23.80;;
31782;SDS011;18351;47.560;9.708;2022-11-03T19:54:55;42.30;;;26.13;;
31782;SDS011;18351;47.560;9.708;2022-11-03T19:57:22;37.85;;;26.33;;
31782;SDS011;18351;47.560;9.708;2022-11-03T19:59:48;40.20;;;26.45;;
31782;SDS011;18351;47.560;9.708;2022-11-03T20:02:14;50.03;;;30.73;;
31782;SDS011;18351;47.560;9.708;2022-11-03T20:04:40;45.63;;;29.08;;
31782;SDS011;18351;47.560;9.708;2022-11-03T20:07:11;46.92;;;29.83;;
31782;SDS011;18351;47.560;9.708;2022-11-03T20:12:34;40.85;;;28.15;;
31782;SDS011;18351;47.560;9.708;2022-11-03T20:15:00;40.95;;;25.90;;
31782;SDS011;18351;47.560;9.708;2022-11-03T20:17:25;40.50;;;27.60;;
31782;SDS011;18351;47.560;9.708;2022-11-03T20:19:51;44.50;;;29.23;;
31782;SDS011;18351;47.560;9.708;2022-11-03T20:22:20;40.13;;;27.08;;
31782;SDS011;18351;47.560;9.708;2022-11-03T20:24:54;39.65;;;25.98;;
31782;SDS011;18351;47.560;9.708;2022-11-03T20:27:23;37.00;;;24.75;;
31782;SDS011;18351;47.560;9.708;2022-11-03T20:29:48;41.20;;;29.05;;
31782;SDS011;18351;47.560;9.708;2022-11-03T20:32:14;48.58;;;28.30;;
31782;SDS011;18351;47.560;9.708;2022-11-03T20:34:40;37.35;;;25.08;;
31782;SDS011;18351;47.560;9.708;2022-11-03T20:37:14;51.70;;;31.95;;
31782;SDS011;18351;47.560;9.708;2022-11-03T20:39:49;59.40;;;36.58;;
31782;SDS011;18351;47.560;9.708;2022-11-03T20:42:24;48.78;;;29.98;;
31782;SDS011;18351;47.560;9.708;2022-11-03T20:44:51;47.30;;;30.23;;
31782;SDS011;18351;47.560;9.708;2022-11-03T20:47:16;42.45;;;27.40;;
31782;SDS011;18351;47.560;9.708;2022-11-03T20:49:43;40.47;;;26.60;;
31782;SDS011;18351;47.560;9.708;2022-11-03T20:52:10;44.42;;;27.45;;
31782;SDS011;18351;47.560;9.708;2022-11-03T20:54:37;40.67;;;26.17;;
31782;SDS011;18351;47.560;9.708;2022-11-03T20:57:03;37.80;;;26.60;;
31782;SDS011;18351;47.560;9.708;2022-11-03T20:59:29;41.90;;;26.55;;
31782;SDS011;18351;47.560;9.708;2022-11-03T21:01:55;41.25;;;27.17;;
31782;SDS011;18351;47.560;9.708;2022-11-03T21:04:21;43.60;;;27.02;;
31782;SDS011;18351;47.560;9.708;2022-11-03T21:06:47;43.47;;;29.00;;
31782;SDS011;18351;47.560;9.708;2022-11-03T21:09:15;38.60;;;27.15;;
31782;SDS011;18351;47.560;9.708;2022-11-03T21:11:42;46.42;;;28.23;;
31782;SDS011;18351;47.560;9.708;2022-11-03T21:16:51;41.30;;;26.58;;
31782;SDS011;18351;47.560;9.708;2022-11-03T21:19:46;39.67;;;25.67;;
31782;SDS011;18351;47.560;9.708;2022-11-03T21:22:33;36.85;;;24.58;;
31782;SDS011;18351;47.560;9.708;2022-11-03T21:25:00;40.20;;;25.70;;
31782;SDS011;18351;47.560;9.708;2022-11-03T21:27:27;36.45;;;26.08;;
31782;SDS011;18351;47.560;9.708;2022-11-03T21:29:52;40.65;;;25.92;;
31782;SDS011;18351;47.560;9.708;2022-11-03T21:32:18;35.92;;;24.40;;
31782;SDS011;18351;47.560;9.708;2022-11-03T21:34:45;41.33;;;26.17;;
31782;SDS011;18351;47.560;9.708;2022-11-03T21:37:12;42.25;;;27.40;;
31782;SDS011;18351;47.560;9.708;2022-11-03T21:39:41;41.05;;;26.63;;
31782;SDS011;18351;47.560;9.708;2022-11-03T21:42:11;43.88;;;27.65;;
31782;SDS011;18351;47.560;9.708;2022-11-03T21:44:56;42.63;;;27.70;;
31782;SDS011;18351;47.560;9.708;2022-11-03T21:47:23;39.38;;;27.45;;
31782;SDS011;18351;47.560;9.708;2022-11-03T21:49:49;44.78;;;29.30;;
31782;SDS011;18351;47.560;9.708;2022-11-03T21:52:16;45.30;;;30.38;;
31782;SDS011;18351;47.560;9.708;2022-11-03T21:54:43;46.85;;;29.02;;
31782;SDS011;18351;47.560;9.708;2022-11-03T21:57:10;48.15;;;31.52;;
31782;SDS011;18351;47.560;9.708;2022-11-03T21:59:39;47.90;;;30.25;;
31782;SDS011;18351;47.560;9.708;2022-11-03T22:02:05;44.70;;;28.48;;
31782;SDS011;18351;47.560;9.708;2022-11-03T22:04:31;42.00;;;28.17;;
31782;SDS011;18351;47.560;9.708;2022-11-03T22:06:57;40.67;;;26.80;;
31782;SDS011;18351;47.560;9.708;2022-11-03T22:09:23;37.85;;;25.27;;
31782;SDS011;18351;47.560;9.708;2022-11-03T22:11:51;33.88;;;24.75;;
31782;SDS011;18351;47.560;9.708;2022-11-03T22:14:17;37.63;;;23.65;;
31782;SDS011;18351;47.560;9.708;2022-11-03T22:16:43;37.45;;;23.17;;
31782;SDS011;18351;47.560;9.708;2022-11-03T22:19:16;33.85;;;21.90;;
31782;SDS011;18351;47.560;9.708;2022-11-03T22:22:03;34.13;;;22.95;;
31782;SDS011;18351;47.560;9.708;2022-11-03T22:24:55;28.40;;;20.30;;
31782;SDS011;18351;47.560;9.708;2022-11-03T22:27:40;33.90;;;20.30;;
31782;SDS011;18351;47.560;9.708;2022-11-03T22:30:06;23.92;;;15.77;;
31782;SDS011;18351;47.560;9.708;2022-11-03T22:32:51;14.52;;;9.13;;
31782;SDS011;18351;47.560;9.708;2022-11-03T22:35:19;11.02;;;6.60;;
31782;SDS011;18351;47.560;9.708;2022-11-03T22:38:04;5.10;;;3.90;;
31782;SDS011;18351;47.560;9.708;2022-11-03T22:40:37;2.72;;;2.13;;
31782;SDS011;18351;47.560;9.708;2022-11-03T22:43:22;4.57;;;1.67;;
31782;SDS011;18351;47.560;9.708;2022-11-03T22:46:08;2.08;;;1.83;;
31782;SDS011;18351;47.560;9.708;2022-11-03T22:48:35;4.15;;;2.05;;
31782;SDS011;18351;47.560;9.708;2022-11-03T22:51:02;3.28;;;2.30;;
31782;SDS011;18351;47.560;9.708;2022-11-03T22:53:30;2.45;;;1.85;;
31782;SDS011;18351;47.560;9.708;2022-11-03T22:56:15;2.55;;;1.60;;
31782;SDS011;18351;47.560;9.708;2022-11-03T22:58:42;1.67;;;1.58;;
31782;SDS011;18351;47.560;9.708;2022-11-03T23:01:09;3.45;;;1.63;;
31782;SDS011;18351;47.560;9.708;2022-11-03T23:03:37;1.60;;;1.30;;
31782;SDS011;18351;47.560;9.708;2022-11-03T23:06:04;2.97;;;1.25;;
31782;SDS011;18351;47.560;9.708;2022-11-03T23:08:35;5.32;;;1.15;;
31782;SDS011;18351;47.560;9.708;2022-11-03T23:11:11;2.63;;;1.20;;
31782;SDS011;18351;47.560;9.708;2022-11-03T23:16:09;4.60;;;1.15;;
31782;SDS011;18351;47.560;9.708;2022-11-03T23:18:36;2.10;;;1.33;;
31782;SDS011;18351;47.560;9.708;2022-11-03T23:21:20;0.98;;;0.88;;
31782;SDS011;18351;47.560;9.708;2022-11-03T23:23:46;1.25;;;1.00;;
31782;SDS011;18351;47.560;9.708;2022-11-03T23:26:30;1.58;;;1.00;;
31782;SDS011;18351;47.560;9.708;2022-11-03T23:28:56;1.00;;;0.90;;
31782;SDS011;18351;47.560;9.708;2022-11-03T23:31:22;0.80;;;0.80;;
31782;SDS011;18351;47.560;9.708;2022-11-03T23:33:47;0.70;;;0.70;;
31782;SDS011;18351;47.560;9.708;2022-11-03T23:36:13;2.67;;;1.13;;
31782;SDS011;18351;47.560;9.708;2022-11-03T23:38:40;1.00;;;0.90;;
31782;SDS011;18351;47.560;9.708;2022-11-03T23:41:12;0.70;;;0.70;;
31782;SDS011;18351;47.560;9.708;2022-11-03T23:43:40;0.88;;;0.70;;
31782;SDS011;18351;47.560;9.708;2022-11-03T23:46:08;4.18;;;0.77;;
31782;SDS011;18351;47.560;9.708;2022-11-03T23:48:54;1.15;;;0.75;;
31782;SDS011;18351;47.560;9.708;2022-11-03T23:51:21;1.02;;;0.90;;
31782;SDS011;18351;47.560;9.708;2022-11-03T23:53:48;1.27;;;0.75;;
31782;SDS011;18351;47.560;9.708;2022-11-03T23:56:15;0.70;;;0.70;;
31782;SDS011;18351;47.560;9.708;2022-11-03T23:59:01;1.02;;;0.77;;
